Hastings Natural History Reservation, California Weather observations

Data are for 10 minute period ending at time listed.
 Day   Time   Solar   Ave.   Ave.  Ave.  Vector  Max.   Baro.   Total    
  of    of     Rad.   Air    Rel.  Wind   Wind   Wind  Press.  Precip.   
Year   Day            Temp.  Hum.  Speed  Dir.   Gust                    
2015   (PST)  Kw/m2    F      %     mph   deg.    mph    mb.     in.     
-------------------------------------------------------------------------
  31    0:00   0.00   40.3    97    0.3    48     1.1   949.5    0.00 
  31    0:10   0.00   40.2    98    0.2    51     1.5   949.2    0.00 
  31    0:20   0.00   40.2    98    0.3    54     1.3   949.3    0.00 
  31    0:30   0.00   40.0    98    0.3    47     0.8   949.3    0.00 
  31    0:40   0.00   40.0    98    0.0     1     0.7   949.3    0.00 
  31    0:50   0.00   39.9    98    0.3    50     1.2   949.3    0.00 
  31    1:00   0.00   39.9    98    0.0    60     0.7   949.1    0.00 
  31    1:10   0.00   39.6    98    0.1    40     0.9   949.2    0.00 
  31    1:20   0.00   39.5    98    0.6    46     1.7   949.1    0.00 
  31    1:30   0.00   39.4    99    0.4    53     1.8   949.1    0.00 
  31    1:40   0.00   39.4    99    0.1    57     0.9   949.1    0.00 
  31    1:50   0.00   39.1    99    0.1    66     1.2   949.0    0.00 
  31    2:00   0.00   39.0    99    0.1    30     0.9   948.8    0.00 
  31    2:10   0.00   38.9    99    0.0     0     0.0   948.6    0.00 
  31    2:20   0.00   38.8    99    0.1    39     0.9   948.5    0.00 
  31    2:30   0.00   38.7    99    0.2    66     0.9   948.5    0.00 
  31    2:40   0.00   38.8    99    0.0    58     0.6   948.4    0.00 
  31    2:50   0.00   38.6    99    0.3    47     1.4   948.2    0.00 
  31    3:00   0.00   38.6    99    0.3    63     1.5   948.2    0.00 
  31    3:10   0.00   38.4    99    0.0    32     0.7   948.2    0.00 
  31    3:20   0.00   38.1    99    0.2    58     1.7   948.4    0.00 
  31    3:30   0.00   38.0    99    1.1    52     2.2   948.3    0.00 
  31    3:40   0.00   38.2    99    0.5    58     1.7   948.2    0.00 
  31    3:50   0.00   37.7    99    0.3    39     1.7   948.1    0.00 
  31    4:00   0.00   37.6    99    0.2    49     0.9   948.0    0.00 
  31    4:10   0.00   37.5    99    0.3    71     1.2   948.1    0.00 
  31    4:20   0.00   37.6    99    0.2    55     1.6   948.0    0.00 
  31    4:30   0.00   37.5    99    0.2    44     1.2   948.1    0.00 
  31    4:40   0.00   37.5    99    0.0    17     0.7   948.1    0.00 
  31    4:50   0.00   37.3    99    0.0     0     0.0   948.0    0.00 
  31    5:00   0.00   37.3    99    1.5    59     2.2   948.1    0.00 
  31    5:10   0.00   37.3    99    0.5    56     1.5   948.1    0.00 
  31    5:20   0.00   37.2    99    0.6    51     1.5   948.1    0.00 
  31    5:30   0.00   37.0    99    0.2    64     1.3   948.1    0.00 
  31    5:40   0.00   36.8    99    1.1    60     2.0   948.1    0.00 
  31    5:50   0.00   36.8    99    0.5    72     2.1   948.2    0.00 
  31    6:00   0.00   37.0    99    0.8    56     1.8   948.2    0.00 
  31    6:10   0.00   37.0    98    0.2    81     1.4   948.2    0.00 
  31    6:20   0.00   36.9    98    0.5    50     1.9   948.2    0.00 
  31    6:30   0.00   36.7    98    0.6    49     1.9   948.4    0.00 
  31    6:40   0.00   36.6    98    0.7    52     2.0   948.4    0.00 
  31    6:50   0.00   35.9    98    0.5    56     1.5   948.4    0.00 
  31    7:00   0.00   36.0    98    1.6    55     2.7   948.5    0.00 
  31    7:10   0.00   36.3    98    0.7    59     2.2   948.6    0.00 
  31    7:20   0.00   36.4    98    0.9    58     3.4   948.7    0.00 
  31    7:30   0.00   36.3    98    0.6    52     2.8   948.8    0.00 
  31    7:40   0.00   36.6    98    0.7   247     2.0   949.1    0.00 
  31    7:50   0.00   36.3    97    0.7    65     2.7   949.2    0.00 
  31    8:00   0.00   35.9    97    0.7   236     1.8   949.2    0.00 
  31    8:10   0.00   36.0    97    0.4    68     2.1   949.2    0.00 
  31    8:20   0.00   35.8    97    1.2    37     2.8   949.3    0.00 
  31    8:30   0.00   35.9    97    1.2    60     2.7   949.5    0.00 
  31    8:40   0.00   35.8    97    0.5   222     2.8   949.6    0.00 
  31    8:50   0.00   35.9    97    0.1    35     1.5   949.8    0.00 
  31    9:00   0.01   36.1    97    0.8    50     1.9   950.1    0.00 
  31    9:10   0.01   36.7    97    0.7    55     2.2   950.3    0.00 
  31    9:20   0.01   37.1    95    0.9    74     2.3   950.5    0.00 
  31    9:30   0.01   37.5    95    1.1    46     2.6   950.7    0.00 
  31    9:40   0.01   38.3    94    1.2    56     3.1   950.8    0.00 
  31    9:50   0.01   39.1    94    0.6    69     1.8   950.7    0.00 
  31   10:00   0.01   40.7    92    0.3    67     1.4   950.8    0.00 
  31   10:10   0.01   42.2    89    1.3    84     3.3   950.9    0.00 
  31   10:20   0.01   45.4    78    0.3    62     2.6   951.0    0.00 
  31   10:30   0.01   48.2    67    0.8    69     2.6   951.2    0.00 
  31   10:40   0.01   50.9    58    1.8    60     3.9   951.4    0.00 
  31   10:50   0.01   53.7    49    1.9    49     5.9   951.5    0.00 
  31   11:00   0.02   54.4    47    0.7    89     2.6   951.4    0.00 
  31   11:10   0.02   54.8    44    0.6   238     1.9   951.5    0.00 
  31   11:20   0.02   55.5    44    1.6   220     5.4   951.8    0.00 
  31   11:30   0.03   57.3    41    3.0   232     8.5   951.8    0.00 
  31   11:40   0.04   59.0    37    3.6   230     9.3   951.9    0.00 
  31   11:50   0.03   60.5    32    3.5   223     9.0   951.9    0.00 
  31   12:00   0.03   61.7    28    2.5   108     6.9   952.1    0.00 
  31   12:10   0.03   62.0    28    3.7    23    10.9   952.0    0.00 
  31   12:20   0.02   62.1    28    1.7   236     6.1   951.9    0.00 
  31   12:30   0.03   62.8    27    2.0   286     5.6   951.7    0.00 
  31   12:40   0.03   63.7    25    3.3    40    11.0   951.4    0.00 
  31   12:50   0.03   64.9    23    2.9    34     9.3   951.2    0.00 
  31   13:00   0.04   66.6    22    3.4   343    10.3   951.3    0.00 
  31   13:10   0.05   66.5    23    2.3   249     6.7   951.4    0.00 
  31   13:20   0.10   65.8    22    2.5   238     6.1   951.3    0.00 
  31   13:30   0.35   65.8    21    3.5   240     8.1   951.2    0.00 
  31   13:40   0.05   67.1    20    2.7   296     7.1   951.2    0.00 
  31   13:50   0.03   67.1    20    2.8   292     7.2   950.9    0.00 
  31   14:00   0.03   67.6    22    2.4   269     7.8   950.9    0.00 
  31   14:10   0.04   67.0    22    3.1   256     6.7   950.9    0.00 
  31   14:20   0.29   66.7    22    4.6   246    10.8   950.9    0.00 
  31   14:30   0.49   66.9    23    5.7   240    11.8   950.9    0.00 
  31   14:40   0.50   66.4    23    4.4   235     8.8   950.8    0.00 
  31   14:50   0.49   67.0    22    3.4   233     6.4   950.6    0.00 
  31   15:00   0.47   68.2    21    3.4   232     6.4   950.4    0.00 
  31   15:10   0.46   69.6    20    2.9   252     6.7   950.2    0.00 
  31   15:20   0.46   69.5    20    2.3   237     4.7   950.1    0.00 
  31   15:30   0.44   70.2    19    3.2   243     6.3   950.1    0.00 
  31   15:40   0.43   70.8    20    2.2   265     5.5   950.2    0.00 
  31   15:50   0.37   71.0    20    3.4   244     8.3   950.3    0.00 
  31   16:00   0.34   70.6    20    3.1   253     7.8   950.3    0.00 
  31   16:10   0.32   70.3    19    4.9   238     8.9   950.2    0.00 
  31   16:20   0.29   70.1    20    3.7   242     8.3   950.1    0.00 
  31   16:30   0.25   70.2    22    2.2   254     6.2   950.2    0.00 
  31   16:40   0.24   69.6    24    3.4   258     8.1   950.5    0.00 
  31   16:50   0.23   68.0    30    2.9   255     9.1   950.7    0.00 
  31   17:00   0.14   67.0    34    1.7   345     7.5   950.8    0.00 
  31   17:10   0.19   65.2    39    4.1   273    11.1   950.9    0.00 
  31   17:20   0.19   62.5    43    4.4   243    10.5   950.9    0.00 
  31   17:30   0.17   62.0    44    4.3   241     8.5   951.2    0.00 
  31   17:40   0.14   61.6    44    2.7   249     6.9   951.3    0.00 
  31   17:50   0.10   62.0    42    1.8   238     4.0   951.4    0.00 
  31   18:00   0.07   61.6    43    0.7   217     2.3   951.6    0.00 
  31   18:10   0.05   60.1    45    0.7   240     2.4   951.7    0.00 
  31   18:20   0.00   57.3    50    1.0    97     2.6   951.6    0.00 
  31   18:30   0.00   54.8    55    1.1    63     3.7   951.6    0.00 
  31   18:40   0.00   53.2    57    0.2    30     2.0   952.0    0.00 
  31   18:50   0.00   51.7    58    0.5   100     2.0   952.2    0.00 
  31   19:00   0.00   49.9    61    0.2   154     1.7   952.5    0.00 
  31   19:10   0.00   48.8    62    0.6    34     1.8   952.8    0.00 
  31   19:20   0.00   47.6    64    0.9    57     2.9   953.0    0.00 
  31   19:30   0.00   46.9    65    0.8    98     2.9   953.0    0.00 
  31   19:40   0.00   46.5    65    0.9    88     3.4   953.1    0.00 
  31   19:50   0.00   48.9    59    1.4    74     3.8   953.3    0.00 
  31   20:00   0.00   46.3    63    0.8    96     3.1   953.5    0.00 
  31   20:10   0.00   44.7    67    0.1    46     1.1   953.5    0.00 
  31   20:20   0.00   43.7    69    0.3   231     1.8   953.5    0.00 
  31   20:30   0.00   42.9    70    0.2    88     5.9   953.5    0.00 
  31   20:40   0.00   42.7    70    1.0    78     3.7   953.4    0.00 
  31   20:50   0.00   43.1    67    1.0    88     2.3   953.2    0.00 
  31   21:00   0.00   44.9    61    1.0    69     2.9   953.2    0.00 
  31   21:10   0.00   41.9    68    0.6    92     4.2   953.3    0.00 
  31   21:20   0.00   43.1    64    1.2    87     6.1   953.3    0.00 
  31   21:30   0.00   43.3    63    1.2    55     3.3   953.4    0.00 
  31   21:40   0.00   41.9    66    1.3   221     3.7   953.7    0.00 
  31   21:50   0.00   41.3    67    1.2   177     3.6   953.7    0.00 
  31   22:00   0.00   40.6    68    1.2   164     4.2   953.8    0.00 
  31   22:10   0.00   39.8    69    0.5   240     3.1   953.8    0.00 
  31   22:20   0.00   39.8    69    0.5    70     1.5   953.7    0.00 
  31   22:30   0.00   39.8    69    0.5    58     2.6   953.7    0.00 
  31   22:40   0.00   39.7    69    0.6   123     3.1   953.7    0.00 
  31   22:50   0.00   39.5    68    0.8   113     2.9   953.8    0.00 
  31   23:00   0.00   39.1    69    1.1    73     4.5   953.8    0.00 
  31   23:10   0.00   39.0    69    0.6    73     1.9   953.8    0.00 
  31   23:20   0.00   39.7    67    0.5    56     3.8   953.8    0.00 
  31   23:30   0.00   39.4    67    0.6    68     3.9   953.8    0.00 
  31   23:40   0.00   38.6    68    0.0    22     0.6   953.9    0.00 
  31   23:50   0.00   38.4    68    0.6   238     1.7   954.0    0.00 

Return to Hastings Natural History Reservation graphs page.


Western Regional Climate Center,wrcc@dri.edu